createdAt,value
2022-10-22T00:00:46.580Z,34.38
2022-10-22T00:03:14.257Z,31.52
2022-10-22T00:05:41.415Z,34.65
2022-10-22T00:08:08.753Z,34.45
2022-10-22T00:10:38.785Z,28.48
2022-10-22T00:13:05.996Z,24.42
2022-10-22T00:15:33.328Z,21.45
2022-10-22T00:18:00.471Z,27.65
2022-10-22T00:20:28.007Z,24.10
2022-10-22T00:22:55.241Z,24.27
2022-10-22T00:25:22.395Z,27.67
2022-10-22T00:27:49.743Z,26.35
2022-10-22T00:30:16.929Z,25.25
2022-10-22T00:32:44.658Z,23.58
2022-10-22T00:35:11.748Z,25.10
2022-10-22T00:37:39.404Z,24.50
2022-10-22T00:40:07.422Z,22.88
2022-10-22T00:42:34.908Z,26.25
2022-10-22T00:45:22.075Z,27.42
2022-10-22T00:48:07.507Z,24.67
2022-10-22T00:50:57.092Z,23.95
2022-10-22T00:53:31.531Z,22.52
2022-10-22T00:55:58.943Z,29.70
2022-10-22T00:58:29.483Z,29.77
2022-10-22T01:00:57.568Z,36.10
2022-10-22T01:03:25.278Z,30.13
2022-10-22T01:05:57.235Z,29.80
2022-10-22T01:09:04.317Z,30.85
2022-10-22T01:11:47.455Z,32.70
2022-10-22T01:14:22.643Z,28.38
2022-10-22T01:17:09.771Z,32.70
2022-10-22T01:19:44.686Z,32.42
2022-10-22T01:22:11.810Z,26.67
2022-10-22T01:25:15.321Z,27.65
2022-10-22T01:27:52.314Z,28.33
2022-10-22T01:30:20.385Z,28.30
2022-10-22T01:32:52.441Z,28.27
2022-10-22T01:35:26.492Z,27.55
2022-10-22T01:37:58.299Z,31.17
2022-10-22T01:40:27.524Z,30.75
2022-10-22T01:42:57.621Z,28.45
2022-10-22T01:45:25.181Z,33.85
2022-10-22T01:47:53.334Z,30.58
2022-10-22T01:50:41.182Z,30.45
2022-10-22T01:53:24.722Z,27.77
2022-10-22T01:56:16.938Z,28.35
2022-10-22T01:59:15.954Z,29.13
2022-10-22T02:02:09.100Z,28.75
2022-10-22T02:04:41.298Z,26.40
2022-10-22T02:07:11.614Z,26.60
2022-10-22T02:09:40.508Z,27.38
2022-10-22T02:12:09.469Z,25.88
2022-10-22T02:14:39.708Z,27.75
2022-10-22T02:17:11.055Z,29.20
2022-10-22T02:19:46.895Z,26.70
2022-10-22T02:22:14.277Z,26.70
2022-10-22T02:24:41.788Z,26.30
2022-10-22T02:27:24.218Z,27.25
2022-10-22T02:30:12.866Z,27.25
2022-10-22T02:32:59.891Z,24.80
2022-10-22T02:35:29.136Z,24.30
2022-10-22T02:37:59.156Z,27.90
2022-10-22T02:40:28.021Z,26.73
2022-10-22T02:42:55.257Z,25.05
2022-10-22T02:45:23.014Z,27.15
2022-10-22T02:47:50.386Z,27.77
2022-10-22T02:50:17.782Z,29.02
2022-10-22T02:52:45.038Z,25.48
2022-10-22T02:55:12.140Z,26.48
2022-10-22T02:57:39.912Z,26.50
2022-10-22T03:00:08.155Z,29.48
2022-10-22T03:02:35.899Z,27.30
2022-10-22T03:05:04.260Z,29.35
2022-10-22T03:07:31.372Z,22.17
2022-10-22T03:09:58.741Z,26.33
2022-10-22T03:12:26.187Z,22.95
2022-10-22T03:14:53.400Z,22.80
2022-10-22T03:17:20.597Z,30.90
2022-10-22T03:19:47.841Z,25.08
2022-10-22T03:22:22.047Z,24.73
2022-10-22T03:24:53.009Z,27.20
2022-10-22T03:27:22.147Z,26.98
2022-10-22T03:29:51.887Z,40.75
2022-10-22T03:32:19.606Z,59.28
2022-10-22T03:34:46.860Z,61.22
2022-10-22T03:37:14.670Z,34.30
2022-10-22T03:39:42.022Z,30.20
2022-10-22T03:42:09.934Z,29.08
2022-10-22T03:44:38.445Z,26.23
2022-10-22T03:47:06.340Z,27.98
2022-10-22T03:49:33.881Z,28.77
2022-10-22T03:52:09.849Z,27.40
2022-10-22T03:57:06.530Z,30.10
2022-10-22T03:59:38.008Z,25.52
2022-10-22T04:02:05.601Z,28.05
2022-10-22T04:04:33.286Z,25.98
2022-10-22T04:07:00.492Z,27.20
2022-10-22T04:09:27.907Z,29.85
2022-10-22T04:11:55.102Z,23.92
2022-10-22T04:14:22.361Z,24.88
2022-10-22T04:16:49.870Z,28.17
2022-10-22T04:19:17.232Z,24.70
2022-10-22T04:21:44.723Z,28.98
2022-10-22T04:24:11.821Z,24.92
2022-10-22T04:26:39.274Z,26.30
2022-10-22T04:29:11.773Z,25.95
2022-10-22T04:31:42.363Z,63.35
2022-10-22T04:34:09.606Z,30.45
2022-10-22T04:36:36.736Z,30.17
2022-10-22T04:39:05.414Z,26.75
2022-10-22T04:41:35.685Z,29.48
2022-10-22T04:44:04.594Z,27.48
2022-10-22T04:46:34.307Z,27.05
2022-10-22T04:49:04.059Z,26.23
2022-10-22T04:51:31.762Z,26.52
2022-10-22T04:53:59.329Z,25.70
2022-10-22T04:56:29.947Z,25.55
2022-10-22T04:58:59.731Z,27.17
2022-10-22T05:01:31.195Z,24.42
2022-10-22T05:04:00.908Z,31.27
2022-10-22T05:06:29.428Z,28.65
2022-10-22T05:08:59.506Z,27.48
2022-10-22T05:11:29.581Z,33.13
2022-10-22T05:13:58.467Z,32.80
2022-10-22T05:16:26.275Z,29.13
2022-10-22T05:18:53.710Z,30.08
2022-10-22T05:21:21.659Z,27.02
2022-10-22T05:23:50.336Z,33.60
2022-10-22T05:26:20.576Z,30.42
2022-10-22T05:28:50.027Z,30.08
2022-10-22T05:31:18.339Z,35.42
2022-10-22T05:33:46.925Z,32.42
2022-10-22T05:36:18.025Z,30.48
2022-10-22T05:38:45.521Z,27.77
2022-10-22T05:41:16.891Z,28.23
2022-10-22T05:43:44.617Z,30.92
2022-10-22T05:46:21.236Z,26.40
2022-10-22T05:48:52.337Z,28.58
2022-10-22T05:51:20.432Z,28.42
2022-10-22T05:53:52.844Z,31.25
2022-10-22T05:56:20.260Z,27.17
2022-10-22T05:58:48.000Z,27.52
2022-10-22T06:01:18.272Z,25.48
2022-10-22T06:03:46.949Z,26.50
2022-10-22T06:06:18.716Z,30.40
2022-10-22T06:08:49.083Z,32.38
2022-10-22T06:11:18.035Z,27.17
2022-10-22T06:13:46.994Z,30.25
2022-10-22T06:16:15.407Z,27.98
2022-10-22T06:18:43.341Z,27.48
2022-10-22T06:21:13.513Z,26.27
2022-10-22T06:23:41.587Z,26.85
2022-10-22T06:26:09.752Z,28.40
2022-10-22T06:28:37.099Z,32.00
2022-10-22T06:31:05.263Z,27.20
2022-10-22T06:33:34.401Z,30.35
2022-10-22T06:36:07.798Z,30.13
2022-10-22T06:38:35.502Z,29.50
2022-10-22T06:41:05.365Z,30.02
2022-10-22T06:43:32.546Z,29.95
2022-10-22T06:46:01.871Z,29.92
2022-10-22T06:48:29.166Z,33.47
2022-10-22T06:50:56.405Z,27.75
2022-10-22T06:53:23.626Z,26.70
2022-10-22T06:55:50.950Z,33.78
2022-10-22T06:58:18.868Z,32.03
2022-10-22T07:00:46.058Z,31.08
2022-10-22T07:03:14.059Z,29.98
2022-10-22T07:05:42.325Z,33.80
2022-10-22T07:08:09.531Z,29.33
2022-10-22T07:10:36.895Z,30.17
2022-10-22T07:13:04.228Z,32.40
2022-10-22T07:15:31.527Z,29.05
2022-10-22T07:17:59.425Z,29.60
2022-10-22T07:20:26.566Z,27.25
2022-10-22T07:22:54.223Z,31.70
2022-10-22T07:25:21.352Z,28.15
2022-10-22T07:27:48.862Z,25.13
2022-10-22T07:30:15.978Z,28.30
2022-10-22T07:32:43.167Z,27.05
2022-10-22T07:35:10.598Z,23.88
2022-10-22T07:37:37.862Z,26.13
2022-10-22T07:40:05.771Z,25.27
2022-10-22T07:42:32.893Z,27.95
2022-10-22T07:45:00.121Z,21.67
2022-10-22T07:47:27.242Z,27.90
2022-10-22T07:49:54.742Z,24.10
2022-10-22T07:52:22.338Z,30.40
2022-10-22T07:54:49.576Z,22.25
2022-10-22T07:57:17.266Z,23.63
2022-10-22T07:59:44.413Z,24.20
2022-10-22T08:02:13.156Z,28.77
2022-10-22T08:04:41.019Z,22.38
2022-10-22T08:07:08.309Z,23.80
2022-10-22T08:09:36.082Z,27.52
2022-10-22T08:12:03.497Z,27.90
2022-10-22T08:14:31.402Z,22.27
2022-10-22T08:16:58.783Z,19.30
2022-10-22T08:19:26.029Z,29.20
2022-10-22T08:21:53.414Z,19.45
2022-10-22T08:24:20.777Z,25.60
2022-10-22T08:26:48.199Z,24.80
2022-10-22T08:29:15.431Z,20.65
2022-10-22T08:31:42.846Z,22.17
2022-10-22T08:34:10.375Z,21.90
2022-10-22T08:36:37.580Z,22.45
2022-10-22T08:39:05.235Z,20.55
2022-10-22T08:41:43.505Z,24.00
2022-10-22T08:44:31.562Z,22.92
2022-10-22T08:47:23.481Z,20.90
2022-10-22T08:49:53.299Z,22.88
2022-10-22T08:52:20.956Z,26.45
2022-10-22T08:54:59.501Z,23.10
2022-10-22T09:00:11.204Z,24.35
2022-10-22T09:02:39.845Z,25.48
2022-10-22T09:05:18.657Z,31.50
2022-10-22T09:07:50.174Z,34.97
2022-10-22T09:10:20.285Z,30.08
2022-10-22T09:12:48.957Z,26.10
2022-10-22T09:15:18.738Z,38.67
2022-10-22T09:17:55.015Z,32.72
2022-10-22T09:20:32.845Z,34.17
2022-10-22T09:23:27.586Z,33.55
2022-10-22T09:25:57.259Z,32.28
2022-10-22T09:28:24.659Z,28.92
2022-10-22T09:30:52.214Z,26.48
2022-10-22T09:33:26.340Z,27.92
2022-10-22T09:35:58.069Z,28.88
2022-10-22T09:38:31.396Z,30.85
2022-10-22T09:41:00.394Z,27.58
2022-10-22T09:43:27.451Z,28.38
2022-10-22T09:46:01.604Z,25.45
2022-10-22T09:48:39.344Z,27.75
2022-10-22T09:51:24.399Z,28.23
2022-10-22T09:54:01.993Z,34.05
2022-10-22T09:56:36.464Z,32.85
2022-10-22T09:59:03.668Z,25.92
2022-10-22T10:01:34.857Z,26.23
2022-10-22T10:04:09.568Z,31.52
2022-10-22T10:06:40.619Z,24.73
2022-10-22T10:09:25.602Z,31.38
2022-10-22T10:14:45.455Z,26.38
2022-10-22T10:17:30.927Z,29.83
2022-10-22T10:20:39.384Z,28.80
2022-10-22T10:23:24.588Z,28.55
2022-10-22T10:26:03.818Z,27.40
2022-10-22T10:28:51.050Z,24.90
2022-10-22T10:31:19.411Z,24.83
2022-10-22T10:34:07.491Z,41.03
2022-10-22T10:36:52.393Z,29.60
2022-10-22T10:42:12.820Z,26.80
2022-10-22T10:44:48.675Z,29.58
2022-10-22T10:47:37.105Z,28.05
2022-10-22T10:50:25.184Z,30.05
2022-10-22T10:53:07.249Z,32.15
2022-10-22T10:55:47.471Z,34.05
2022-10-22T10:58:42.879Z,35.88
2022-10-22T11:01:24.954Z,31.17
2022-10-22T11:04:06.058Z,30.90
2022-10-22T11:06:36.439Z,26.90
2022-10-22T11:09:11.670Z,27.23
2022-10-22T11:11:51.637Z,27.85
2022-10-22T11:14:25.197Z,25.38
2022-10-22T11:17:02.030Z,28.23
2022-10-22T11:19:50.961Z,30.48
2022-10-22T11:22:25.892Z,30.88
2022-10-22T11:25:13.936Z,26.13
2022-10-22T11:27:54.349Z,27.88
2022-10-22T11:30:24.969Z,20.83
2022-10-22T11:32:57.544Z,25.13
2022-10-22T11:35:31.404Z,27.55
2022-10-22T11:38:00.279Z,22.70
2022-10-22T11:40:28.863Z,21.13
2022-10-22T11:43:08.489Z,19.77
2022-10-22T11:45:39.581Z,24.52
2022-10-22T11:48:27.450Z,22.73
2022-10-22T11:51:00.800Z,24.33
2022-10-22T11:53:34.747Z,18.55
2022-10-22T11:56:24.081Z,20.13
2022-10-22T11:58:55.363Z,22.85
2022-10-22T12:01:29.485Z,24.70
2022-10-22T12:03:59.185Z,18.02
2022-10-22T12:06:28.735Z,19.63
2022-10-22T12:09:03.228Z,24.83
2022-10-22T12:11:49.679Z,26.40
2022-10-22T12:14:17.077Z,18.75
2022-10-22T12:16:57.187Z,18.52
2022-10-22T12:19:33.270Z,26.48
2022-10-22T12:22:06.875Z,25.08
2022-10-22T12:24:41.093Z,26.80
2022-10-22T12:27:23.991Z,23.70
2022-10-22T12:30:00.701Z,22.30
2022-10-22T12:32:41.494Z,18.27
2022-10-22T12:35:17.372Z,17.77
2022-10-22T12:37:44.651Z,17.45
2022-10-22T12:40:30.809Z,16.95
2022-10-22T12:43:01.194Z,19.33
2022-10-22T12:45:32.906Z,16.17
2022-10-22T12:48:04.212Z,19.08
2022-10-22T12:50:38.252Z,17.20
2022-10-22T12:53:07.290Z,21.90
2022-10-22T12:55:35.901Z,19.27
2022-10-22T12:58:06.816Z,17.38
2022-10-22T13:00:36.510Z,16.80
2022-10-22T13:03:07.015Z,18.80
2022-10-22T13:05:39.282Z,16.50
2022-10-22T13:08:11.615Z,19.95
2022-10-22T13:10:41.724Z,18.00
2022-10-22T13:13:31.934Z,17.13
2022-10-22T13:16:14.142Z,22.27
2022-10-22T13:18:41.879Z,15.18
2022-10-22T13:21:27.169Z,18.25
2022-10-22T13:24:00.376Z,17.35
2022-10-22T13:26:37.730Z,15.50
2022-10-22T13:29:12.760Z,16.23
2022-10-22T13:31:47.175Z,15.75
2022-10-22T13:34:18.939Z,15.18
2022-10-22T13:36:46.932Z,17.20
2022-10-22T13:39:21.883Z,14.50
2022-10-22T13:41:51.341Z,15.85
2022-10-22T13:44:19.930Z,13.30
2022-10-22T13:46:48.840Z,15.40
2022-10-22T13:49:20.441Z,16.55
2022-10-22T13:51:48.057Z,18.38
2022-10-22T13:54:19.132Z,13.40
2022-10-22T13:56:47.030Z,17.70
2022-10-22T13:59:16.209Z,18.77
2022-10-22T14:01:46.350Z,17.83
2022-10-22T14:04:15.297Z,20.13
2022-10-22T14:06:42.794Z,21.98
2022-10-22T14:09:15.481Z,18.85
2022-10-22T14:11:43.277Z,18.30
2022-10-22T14:14:14.476Z,19.80
2022-10-22T14:16:42.405Z,20.10
2022-10-22T14:19:16.741Z,20.67
2022-10-22T14:21:44.555Z,18.35
2022-10-22T14:24:13.226Z,21.50
2022-10-22T14:26:42.022Z,19.80
2022-10-22T14:29:10.667Z,19.25
2022-10-22T14:34:15.140Z,18.13
2022-10-22T14:36:44.124Z,18.15
2022-10-22T14:39:11.653Z,18.92
2022-10-22T14:41:39.301Z,19.38
2022-10-22T14:44:06.924Z,19.65
2022-10-22T14:46:34.294Z,19.92
2022-10-22T14:49:03.138Z,19.98
2022-10-22T14:51:31.419Z,22.45
2022-10-22T14:53:58.750Z,22.98
2022-10-22T14:56:26.427Z,21.67
2022-10-22T14:58:55.978Z,22.80
2022-10-22T15:01:25.397Z,25.58
2022-10-22T15:03:53.928Z,21.52
2022-10-22T15:06:23.869Z,17.75
2022-10-22T15:08:53.949Z,24.88
2022-10-22T15:11:23.532Z,23.67
2022-10-22T15:13:53.396Z,21.30
2022-10-22T15:16:20.732Z,21.33
2022-10-22T15:18:48.907Z,20.77
2022-10-22T15:21:19.717Z,21.25
2022-10-22T15:23:48.592Z,22.85
2022-10-22T15:26:16.903Z,25.27
2022-10-22T15:28:45.477Z,23.13
2022-10-22T15:31:14.657Z,23.88
2022-10-22T15:33:43.589Z,22.45
2022-10-22T15:36:13.942Z,21.65
2022-10-22T15:38:41.306Z,24.50
2022-10-22T15:41:11.014Z,22.88
2022-10-22T15:43:38.946Z,20.30
2022-10-22T15:46:10.745Z,24.05
2022-10-22T15:48:38.663Z,26.08
2022-10-22T15:51:14.519Z,22.30
2022-10-22T15:53:42.626Z,21.80
2022-10-22T15:56:12.208Z,25.48
2022-10-22T15:58:39.758Z,21.58
2022-10-22T16:01:08.847Z,20.27
2022-10-22T16:03:36.202Z,20.27
2022-10-22T16:06:05.112Z,22.13
2022-10-22T16:08:32.738Z,20.05
2022-10-22T16:11:00.917Z,19.60
2022-10-22T16:13:28.209Z,20.52
2022-10-22T16:15:55.729Z,17.27
2022-10-22T16:18:23.742Z,22.27
2022-10-22T16:20:51.200Z,23.13
2022-10-22T16:23:19.305Z,25.58
2022-10-22T16:25:46.889Z,20.60
2022-10-22T16:28:14.584Z,22.15
2022-10-22T16:30:42.112Z,24.50
2022-10-22T16:33:10.349Z,25.90
2022-10-22T16:35:42.378Z,22.65
2022-10-22T16:38:11.005Z,27.38
2022-10-22T16:40:38.729Z,21.00
2022-10-22T16:43:06.296Z,22.95
2022-10-22T16:45:33.463Z,26.65
2022-10-22T16:48:00.766Z,33.72
2022-10-22T16:50:28.290Z,28.65
2022-10-22T16:52:55.447Z,52.00
2022-10-22T16:55:22.579Z,34.97
2022-10-22T16:57:52.295Z,24.98
2022-10-22T17:00:20.966Z,21.38
2022-10-22T17:02:54.491Z,21.38
2022-10-22T17:05:22.150Z,21.33
2022-10-22T17:07:49.574Z,19.45
2022-10-22T17:10:19.826Z,20.17
2022-10-22T17:12:47.807Z,19.23
2022-10-22T17:15:15.409Z,21.13
2022-10-22T17:17:42.565Z,20.23
2022-10-22T17:20:11.831Z,19.33
2022-10-22T17:22:39.734Z,21.38
2022-10-22T17:25:31.885Z,15.32
2022-10-22T17:27:59.264Z,20.25
2022-10-22T17:30:28.411Z,43.42
2022-10-22T17:32:55.735Z,24.42
2022-10-22T17:35:23.278Z,22.92
2022-10-22T17:37:50.370Z,22.80
2022-10-22T17:40:17.470Z,21.42
2022-10-22T17:42:45.562Z,17.08
2022-10-22T17:45:12.911Z,17.98
2022-10-22T17:47:40.319Z,18.02
2022-10-22T17:50:08.662Z,18.08
2022-10-22T17:52:36.530Z,17.48
2022-10-22T17:55:04.096Z,15.48
2022-10-22T17:57:31.238Z,19.80
2022-10-22T17:59:58.364Z,28.95
2022-10-22T18:02:25.763Z,15.95
2022-10-22T18:04:53.424Z,15.35
2022-10-22T18:07:21.122Z,18.75
2022-10-22T18:09:49.839Z,20.20
2022-10-22T18:12:19.137Z,25.05
2022-10-22T18:14:47.577Z,39.20
2022-10-22T18:19:42.034Z,42.70
2022-10-22T18:22:09.585Z,48.00
2022-10-22T18:24:37.208Z,39.58
2022-10-22T18:27:04.620Z,31.77
2022-10-22T18:29:31.829Z,48.20
2022-10-22T18:31:58.924Z,66.45
2022-10-22T18:34:26.417Z,30.80
2022-10-22T18:36:53.562Z,27.35
2022-10-22T18:39:20.878Z,38.45
2022-10-22T18:41:48.215Z,34.10
2022-10-22T18:44:16.489Z,20.05
2022-10-22T18:46:43.601Z,28.42
2022-10-22T18:49:18.242Z,13.90
2022-10-22T18:54:23.183Z,15.63
2022-10-22T18:56:52.817Z,16.85
2022-10-22T18:59:23.707Z,16.38
2022-10-22T19:01:53.229Z,14.00
2022-10-22T19:04:20.800Z,14.05
2022-10-22T19:06:48.241Z,27.67
2022-10-22T19:09:16.557Z,16.38
2022-10-22T19:11:46.015Z,17.50
2022-10-22T19:14:14.959Z,19.83
2022-10-22T19:16:42.259Z,20.98
2022-10-22T19:19:09.539Z,19.30
2022-10-22T19:21:38.408Z,17.95
2022-10-22T19:24:06.680Z,17.08
2022-10-22T19:26:34.406Z,20.58
2022-10-22T19:29:01.993Z,20.08
2022-10-22T19:31:31.374Z,19.77
2022-10-22T19:34:01.031Z,18.65
2022-10-22T19:36:30.671Z,21.40
2022-10-22T19:38:58.655Z,25.20
2022-10-22T19:41:27.176Z,34.38
2022-10-22T19:43:55.504Z,21.95
2022-10-22T19:46:23.787Z,25.45
2022-10-22T19:48:52.509Z,39.95
2022-10-22T19:51:22.429Z,14.65
2022-10-22T19:53:50.347Z,21.67
2022-10-22T19:56:20.157Z,13.60
2022-10-22T19:58:47.938Z,16.77
2022-10-22T20:01:17.727Z,14.68
2022-10-22T20:03:46.075Z,13.73
2022-10-22T20:06:15.129Z,11.23
2022-10-22T20:08:42.473Z,11.55
2022-10-22T20:11:15.603Z,6.25
2022-10-22T20:13:45.406Z,5.55
2022-10-22T20:16:17.287Z,6.45
2022-10-22T20:18:44.475Z,6.55
2022-10-22T20:21:14.790Z,6.95
2022-10-22T20:23:42.942Z,6.70
2022-10-22T20:26:10.495Z,8.20
2022-10-22T20:28:38.569Z,7.35
2022-10-22T20:31:16.142Z,7.82
2022-10-22T20:33:43.658Z,7.28
2022-10-22T20:36:16.727Z,6.70
2022-10-22T20:38:45.453Z,6.88
2022-10-22T20:41:15.725Z,9.90
2022-10-22T20:43:45.656Z,10.30
2022-10-22T20:46:19.872Z,29.67
2022-10-22T20:48:47.201Z,12.13
2022-10-22T20:51:14.309Z,14.27
2022-10-22T20:53:42.143Z,10.73
2022-10-22T20:56:10.818Z,7.40
2022-10-22T20:58:39.329Z,8.43
2022-10-22T21:01:11.021Z,7.50
2022-10-22T21:03:38.295Z,12.40
2022-10-22T21:06:06.368Z,7.35
2022-10-22T21:08:33.598Z,13.15
2022-10-22T21:11:00.667Z,9.68
2022-10-22T21:13:27.782Z,22.90
2022-10-22T21:15:55.068Z,11.32
2022-10-22T21:18:22.104Z,9.48
2022-10-22T21:20:49.425Z,25.70
2022-10-22T21:23:16.634Z,7.55
2022-10-22T21:25:53.725Z,8.05
2022-10-22T21:28:21.187Z,10.55
2022-10-22T21:30:48.554Z,5.90
2022-10-22T21:33:15.810Z,6.05
2022-10-22T21:35:52.060Z,10.60
2022-10-22T21:38:20.102Z,12.38
2022-10-22T21:40:47.691Z,15.48
2022-10-22T21:43:15.856Z,10.15
2022-10-22T21:45:43.825Z,6.07
2022-10-22T21:48:13.827Z,14.57
2022-10-22T21:50:42.423Z,7.85
2022-10-22T21:53:12.076Z,10.02
2022-10-22T21:55:41.648Z,8.25
2022-10-22T21:58:09.215Z,7.35
2022-10-22T22:00:36.483Z,12.15
2022-10-22T22:03:06.123Z,11.10
2022-10-22T22:05:33.185Z,9.88
2022-10-22T22:08:00.428Z,21.05
2022-10-22T22:10:27.740Z,6.30
2022-10-22T22:12:55.482Z,13.77
2022-10-22T22:15:22.499Z,6.15
2022-10-22T22:17:50.188Z,5.35
2022-10-22T22:20:17.490Z,10.35
2022-10-22T22:22:44.899Z,6.30
2022-10-22T22:25:11.949Z,6.93
2022-10-22T22:27:39.293Z,7.28
2022-10-22T22:30:07.235Z,6.30
2022-10-22T22:32:35.439Z,6.07
2022-10-22T22:35:02.594Z,16.73
2022-10-22T22:37:30.084Z,18.02
2022-10-22T22:39:57.245Z,21.50
2022-10-22T22:42:24.396Z,19.58
2022-10-22T22:44:54.427Z,14.82
2022-10-22T22:47:22.067Z,12.43
2022-10-22T22:49:49.147Z,15.68
2022-10-22T22:52:16.240Z,26.10
2022-10-22T22:54:43.339Z,30.67
2022-10-22T22:57:10.575Z,6.93
2022-10-22T22:59:37.778Z,16.35
2022-10-22T23:02:04.880Z,18.92
2022-10-22T23:04:32.128Z,7.03
2022-10-22T23:06:59.479Z,27.35
2022-10-22T23:09:26.670Z,11.95
2022-10-22T23:11:53.862Z,13.43
2022-10-22T23:14:21.073Z,18.75
2022-10-22T23:16:51.479Z,11.60
2022-10-22T23:19:21.634Z,5.20
2022-10-22T23:21:51.769Z,6.60
2022-10-22T23:24:22.439Z,9.65
2022-10-22T23:26:51.303Z,8.88
2022-10-22T23:29:27.952Z,12.80
2022-10-22T23:31:55.758Z,30.02
2022-10-22T23:34:25.200Z,5.65
2022-10-22T23:36:52.962Z,16.83
2022-10-22T23:39:23.212Z,13.13
2022-10-22T23:41:51.171Z,22.20
2022-10-22T23:44:18.313Z,11.30
2022-10-22T23:46:45.837Z,5.65
2022-10-22T23:49:13.445Z,4.30
2022-10-22T23:51:41.252Z,21.70
2022-10-22T23:54:12.678Z,8.73
2022-10-22T23:56:39.900Z,10.80
2022-10-22T23:59:08.219Z,3.30
